Celebrity Mercury — 9HJG9 — position and weather

sailwx.info

Track history (hours):
 
Tides and Currents Weather Stations Pressure Air Temp Water Temp Dewpoint Dewpoint Depression Visibility Wind Speed Wind Dir Waves Ship Positions

Celebrity Mercury

Last reported at 2017-Sep-19 22:24 UTC. Time now 2017-Sep-20 00:34 UTC.
Position N 37°29' E 024°21'.

Length 264 m; draft 8.5 m.

Type: Ship. MMSI: 249053000.

Date/timePositionNaut miles runAvg speedWind from/ knotsBaromVisibWave heightAir tempDewpointWater temp
2017-Sep-19 22:24N 37°29' E 024°21'3 8.4
2017-Sep-19 22:00N 37°27' E 024°17'4 8.5
2017-Sep-19 21:30N 37°29' E 024°12'4 8.5
2017-Sep-19 21:01N 37°31' E 024°07'4 8.7
2017-Sep-19 20:30N 37°32' E 024°02'5 9.3
2017-Sep-19 20:01N 37°34' E 023°57'4 8.8
2017-Sep-19 19:30N 37°36' E 023°52'4 8.8
2017-Sep-19 19:00N 37°37' E 023°46'4 8.4
2017-Sep-19 18:31N 37°40' E 023°43'4 8.7
2017-Sep-19 18:01N 37°44' E 023°40'4 8.6
2017-Sep-19 17:31N 37°48' E 023°38'4 8.4
2017-Sep-19 17:00N 37°52' E 023°36'4 8.3
2017-Sep-19 16:31N 37°56' E 023°37'1 1.9
2017-Sep-19 15:55N 37°56' E 023°38'0 0.0
2017-Sep-19 15:28N 37°56' E 023°38'0 0.0
2017-Sep-19 14:58N 37°56' E 023°38'0 0.0
2017-Sep-19 14:28N 37°56' E 023°38'0 0.0
2017-Sep-19 13:58N 37°56' E 023°38'0 0.0
2017-Sep-19 13:28N 37°56' E 023°38'0 0.0
2017-Sep-19 12:58N 37°56' E 023°38'0 0.0
2017-Sep-19 12:28N 37°56' E 023°38'0 0.0
2017-Sep-19 11:58N 37°56' E 023°38'0 0.0
2017-Sep-19 11:28N 37°56' E 023°38'0 0.0
2017-Sep-19 10:58N 37°56' E 023°38'0 0.0
2017-Sep-19 10:30N 37°56' E 023°38'0 0.0
2017-Sep-19 10:00N 37°56' E 023°38'0 0.0
2017-Sep-19 09:14N 37°56' E 023°38'0 0.0
2017-Sep-19 08:59N 37°56' E 023°38'0 0.0
2017-Sep-19 08:29N 37°56' E 023°38'0 0.0
2017-Sep-19 07:59N 37°56' E 023°38'0 0.0
2017-Sep-19 07:29N 37°56' E 023°38'0 0.0
2017-Sep-19 06:59N 37°56' E 023°38'0 0.0
2017-Sep-19 06:29N 37°56' E 023°38'0 0.0
2017-Sep-19 05:59N 37°56' E 023°38'0 0.0
2017-Sep-19 05:29N 37°56' E 023°38'0 0.0
2017-Sep-19 04:59N 37°56' E 023°38'0 0.0
2017-Sep-19 04:29N 37°56' E 023°38'0 0.0
2017-Sep-19 03:59N 37°56' E 023°38'0 0.0
2017-Sep-19 03:29N 37°56' E 023°38'0 0.0
2017-Sep-19 02:59N 37°56' E 023°38'0 0.0
2017-Sep-19 02:29N 37°56' E 023°38'0 0.4
2017-Sep-19 02:01N 37°56' E 023°38'2 4.8
2017-Sep-19 01:31N 37°54' E 023°37'611.0
2017-Sep-19 01:01N 37°49' E 023°40'612.3
2017-Sep-19 00:31N 37°44' E 023°43'714.9
2017-Sep-19 00:00N 37°37' E 023°47'816.1
2017-Sep-18 23:31N 37°29' E 023°46'816.7
2017-Sep-18 23:00N 37°21' E 023°43'816.9
2017-Sep-18 22:30N 37°13' E 023°40'817.0
2017-Sep-18 22:01N 37°05' E 023°37'816.6
2017-Sep-18 21:30N 36°57' E 023°34'816.3
2017-Sep-18 21:00N 36°49' E 023°32'8915.0
2017-Sep-18 15:03N 36°17' E 021°48'119.8
2017-Sep-18 15:00N 36°17' E 021°47'1019.4
2017-Sep-18 14:30N 36°17' E 021°35'24618.8
2017-Sep-18 01:28N 36°03' E 016°31'3318.3
2017-Sep-17 23:40N 36°02' E 015°51'318.8
2017-Sep-17 23:30N 36°01' E 015°47'2718.8
2017-Sep-17 22:03N 36°00' E 015°13'118.8
2017-Sep-17 22:00N 36°00' E 015°12'919.0
2017-Sep-17 21:30N 36°01' E 015°00'918.7
2017-Sep-17 21:00N 36°01' E 014°49'918.5
2017-Sep-17 20:31N 35°57' E 014°39'713.3
2017-Sep-17 20:00N 35°54' E 014°31'1 1.0
2017-Sep-17 19:30N 35°53' E 014°31'0 0.0
2017-Sep-17 18:57N 35°53' E 014°31'0 0.0
2017-Sep-17 18:30N 35°53' E 014°31'0 0.0
2017-Sep-17 18:00N 35°53' E 014°31'0 0.0
2017-Sep-17 13:03N 35°53' E 014°31'0 0.0
2017-Sep-17 12:57N 35°53' E 014°31'0 0.0
2017-Sep-17 12:30N 35°53' E 014°31'0 0.0
2017-Sep-17 02:17N 35°53' E 014°31'0 0.5
2017-Sep-17 02:00N 35°53' E 014°31'4 7.2
2017-Sep-17 01:30N 35°56' E 014°34'611.5
2017-Sep-17 01:00N 36°00' E 014°39'613.0
2017-Sep-17 00:30N 36°05' E 014°44'612.8
2017-Sep-17 00:00N 36°10' E 014°50'714.4
2017-Sep-16 23:30N 36°15' E 014°55'816.4
2017-Sep-16 23:00N 36°22' E 015°02'816.3
2017-Sep-16 22:30N 36°28' E 015°08'816.4
2017-Sep-16 22:00N 36°34' E 015°15'816.1
2017-Sep-16 21:30N 36°40' E 015°22'815.7
2017-Sep-16 21:00N 36°46' E 015°28'815.4
2017-Sep-16 20:30N 36°52' E 015°34'714.9
2017-Sep-16 20:00N 36°58' E 015°40'815.0
2017-Sep-16 19:30N 37°03' E 015°46'715.0
2017-Sep-16 19:00N 37°09' E 015°51'815.5
2017-Sep-16 18:30N 37°16' E 015°57'815.5
2017-Sep-16 18:00N 37°22' E 016°03'1415.5
2017-Sep-16 17:04N 37°33' E 016°14'715.4
2017-Sep-16 16:38N 37°38' E 016°20'415.4
2017-Sep-16 16:23N 37°41' E 016°23'615.4
2017-Sep-16 15:59N 37°46' E 016°27'715.3
2017-Sep-16 15:30N 37°53' E 016°32'815.6
2017-Sep-16 14:59N 37°59' E 016°39'915.9
2017-Sep-16 14:26N 38°06' E 016°46'715.9
2017-Sep-16 14:00N 38°11' E 016°51'815.9
2017-Sep-16 13:30N 38°17' E 016°58'815.9
2017-Sep-16 13:00N 38°23' E 017°05'815.8
2017-Sep-16 12:30N 38°29' E 017°11'815.7
2017-Sep-16 12:00N 38°35' E 017°17'815.7
2017-Sep-16 11:30N 38°41' E 017°25'815.6
2017-Sep-16 11:00N 38°47' E 017°30'816.1
2017-Sep-16 10:30N 38°54' E 017°34'815.8
2017-Sep-16 10:00N 39°00' E 017°41'815.7
2017-Sep-16 09:30N 39°07' E 017°47'815.8
2017-Sep-16 09:00N 39°13' E 017°53'815.9
2017-Sep-16 08:31N 39°19' E 017°59'815.9
2017-Sep-16 08:00N 39°25' E 018°06'816.0
2017-Sep-16 07:30N 39°32' E 018°12'816.7
2017-Sep-16 07:00N 39°38' E 018°19'917.2
2017-Sep-16 06:31N 39°45' E 018°25'816.7
2017-Sep-16 06:00N 39°53' E 018°30'1516.0
2017-Sep-16 05:04N 40°07' E 018°38'116.1
2017-Sep-16 05:01N 40°07' E 018°38'816.2
2017-Sep-16 04:30N 40°16' E 018°38'816.0
2017-Sep-16 04:00N 40°24' E 018°38'815.9
2017-Sep-16 03:30N 40°31' E 018°35'815.9
2017-Sep-16 03:00N 40°39' E 018°33'713.6
2017-Sep-16 02:29N 40°45' E 018°37'1016.0
2017-Sep-16 01:52N 40°55' E 018°33'515.0
2017-Sep-16 01:30N 40°59' E 018°29'815.0
2017-Sep-16 01:01N 41°06' E 018°25'32 0.7
2017-Sep-14 00:03N 41°33' E 018°49'117.2
2017-Sep-14 00:00N 41°32' E 018°49'916.8
2017-Sep-13 23:29N 41°24' E 018°51'816.6
2017-Sep-13 23:01N 41°16' E 018°54'816.3
2017-Sep-13 22:31N 41°08' E 018°57'3016.1
2017-Sep-13 20:38N 40°39' E 019°04'316.3
2017-Sep-13 20:25N 40°36' E 019°06'1316.5
2017-Sep-13 19:37N 40°23' E 019°11'716.3
2017-Sep-13 19:10N 40°16' E 019°16'915.5
2017-Sep-13 18:34N 40°10' E 019°24'118.5
2017-Sep-13 18:30N 40°09' E 019°25'918.6
2017-Sep-13 18:00N 40°03' E 019°35'918.3
2017-Sep-13 17:30N 39°57' E 019°44'  
2017-Sep-11 00:17N 36°09' E 015°26'311.7
2017-Sep-11 00:00N 36°09' E 015°21'611.6
2017-Sep-10 23:30N 36°08' E 015°14'611.1
2017-Sep-10 23:00N 36°08' E 015°07'510.9
2017-Sep-10 22:30N 36°07' E 015°01'611.1
2017-Sep-10 22:00N 36°05' E 014°54'611.3
2017-Sep-10 21:30N 36°02' E 014°48'611.5
2017-Sep-10 21:00N 35°59' E 014°43'611.7
2017-Sep-10 20:30N 35°56' E 014°37'5 9.2
2017-Sep-10 20:00N 35°54' E 014°31'1 1.3
2017-Sep-10 19:22N 35°53' E 014°31'0 0.0
2017-Sep-10 18:58N 35°53' E 014°31'0 0.0
2017-Sep-10 18:28N 35°53' E 014°31'0 0.0
2017-Sep-10 17:58N 35°53' E 014°31'0 0.0
2017-Sep-10 17:28N 35°53' E 014°31'0 0.0
2017-Sep-10 16:31N 35°53' E 014°31'0 0.0
2017-Sep-10 16:04N 35°53' E 014°31'0 0.0
2017-Sep-10 15:58N 35°53' E 014°31'0 0.0
2017-Sep-10 15:25N 35°53' E 014°31'0 0.0
2017-Sep-10 14:55N 35°53' E 014°31'0 0.0
2017-Sep-10 13:22N 35°53' E 014°31'0 0.0
2017-Sep-10 12:46N 35°53' E 014°31'0 0.0
2017-Sep-10 12:28N 35°53' E 014°31'0 0.0
2017-Sep-10 11:49N 35°53' E 014°31'0 0.0
2017-Sep-10 11:28N 35°53' E 014°31'0 0.0
2017-Sep-10 10:58N 35°53' E 014°31'0 0.0
2017-Sep-10 10:28N 35°53' E 014°31'0 0.0
2017-Sep-10 07:09N 35°53' E 014°31'0 0.0
2017-Sep-10 07:00N 35°53' E 014°31'0 0.0
2017-Sep-10 06:29N 35°53' E 014°31'0 0.0
2017-Sep-10 05:59N 35°53' E 014°31'0 0.0
2017-Sep-10 04:56N 35°53' E 014°31'0 0.0
2017-Sep-10 03:53N 35°53' E 014°31'0 0.0
2017-Sep-10 02:13N 35°53' E 014°31'1 2.0
2017-Sep-10 01:52N 35°54' E 014°31'3 7.7
2017-Sep-10 01:30N 35°55' E 014°34'510.7
2017-Sep-10 01:00N 35°59' E 014°39'612.1
2017-Sep-10 00:30N 36°03' E 014°45'  
Track history (hours):
 
Tides and Currents Weather Stations Pressure Air Temp Water Temp Dewpoint Dewpoint Depression Visibility Wind Speed Wind Dir Waves Ship Positions

Celebrity Mercury

Last reported at 2017-Sep-19 22:24 UTC. Time now 2017-Sep-20 00:34 UTC.
Position N 37°29' E 024°21'.

Length 264 m; draft 8.5 m.

Type: Ship. MMSI: 249053000.

Date/timePositionNaut miles runAvg speedWind from/ knotsBaromVisibWave heightAir tempDewpointWater temp
2017-Sep-19 22:24N 37°29' E 024°21'3 8.4
2017-Sep-19 22:00N 37°27' E 024°17'4 8.5
2017-Sep-19 21:30N 37°29' E 024°12'4 8.5
2017-Sep-19 21:01N 37°31' E 024°07'4 8.7
2017-Sep-19 20:30N 37°32' E 024°02'5 9.3
2017-Sep-19 20:01N 37°34' E 023°57'4 8.8
2017-Sep-19 19:30N 37°36' E 023°52'4 8.8
2017-Sep-19 19:00N 37°37' E 023°46'4 8.4
2017-Sep-19 18:31N 37°40' E 023°43'4 8.7
2017-Sep-19 18:01N 37°44' E 023°40'4 8.6
2017-Sep-19 17:31N 37°48' E 023°38'4 8.4
2017-Sep-19 17:00N 37°52' E 023°36'4 8.3
2017-Sep-19 16:31N 37°56' E 023°37'1 1.9
2017-Sep-19 15:55N 37°56' E 023°38'0 0.0
2017-Sep-19 15:28N 37°56' E 023°38'0 0.0
2017-Sep-19 14:58N 37°56' E 023°38'0 0.0
2017-Sep-19 14:28N 37°56' E 023°38'0 0.0
2017-Sep-19 13:58N 37°56' E 023°38'0 0.0
2017-Sep-19 13:28N 37°56' E 023°38'0 0.0
2017-Sep-19 12:58N 37°56' E 023°38'0 0.0
2017-Sep-19 12:28N 37°56' E 023°38'0 0.0
2017-Sep-19 11:58N 37°56' E 023°38'0 0.0
2017-Sep-19 11:28N 37°56' E 023°38'0 0.0
2017-Sep-19 10:58N 37°56' E 023°38'0 0.0
2017-Sep-19 10:30N 37°56' E 023°38'0 0.0
2017-Sep-19 10:00N 37°56' E 023°38'0 0.0
2017-Sep-19 09:14N 37°56' E 023°38'0 0.0
2017-Sep-19 08:59N 37°56' E 023°38'0 0.0
2017-Sep-19 08:29N 37°56' E 023°38'0 0.0
2017-Sep-19 07:59N 37°56' E 023°38'0 0.0
2017-Sep-19 07:29N 37°56' E 023°38'0 0.0
2017-Sep-19 06:59N 37°56' E 023°38'0 0.0
2017-Sep-19 06:29N 37°56' E 023°38'0 0.0
2017-Sep-19 05:59N 37°56' E 023°38'0 0.0
2017-Sep-19 05:29N 37°56' E 023°38'0 0.0
2017-Sep-19 04:59N 37°56' E 023°38'0 0.0
2017-Sep-19 04:29N 37°56' E 023°38'0 0.0
2017-Sep-19 03:59N 37°56' E 023°38'0 0.0
2017-Sep-19 03:29N 37°56' E 023°38'0 0.0
2017-Sep-19 02:59N 37°56' E 023°38'0 0.0
2017-Sep-19 02:29N 37°56' E 023°38'0 0.4
2017-Sep-19 02:01N 37°56' E 023°38'2 4.8
2017-Sep-19 01:31N 37°54' E 023°37'611.0
2017-Sep-19 01:01N 37°49' E 023°40'612.3
2017-Sep-19 00:31N 37°44' E 023°43'714.9
2017-Sep-19 00:00N 37°37' E 023°47'816.1
2017-Sep-18 23:31N 37°29' E 023°46'816.7
2017-Sep-18 23:00N 37°21' E 023°43'816.9
2017-Sep-18 22:30N 37°13' E 023°40'817.0
2017-Sep-18 22:01N 37°05' E 023°37'816.6
2017-Sep-18 21:30N 36°57' E 023°34'816.3
2017-Sep-18 21:00N 36°49' E 023°32'8915.0
2017-Sep-18 15:03N 36°17' E 021°48'119.8
2017-Sep-18 15:00N 36°17' E 021°47'1019.4
2017-Sep-18 14:30N 36°17' E 021°35'24618.8
2017-Sep-18 01:28N 36°03' E 016°31'3318.3
2017-Sep-17 23:40N 36°02' E 015°51'318.8
2017-Sep-17 23:30N 36°01' E 015°47'2718.8
2017-Sep-17 22:03N 36°00' E 015°13'118.8
2017-Sep-17 22:00N 36°00' E 015°12'919.0
2017-Sep-17 21:30N 36°01' E 015°00'918.7
2017-Sep-17 21:00N 36°01' E 014°49'918.5
2017-Sep-17 20:31N 35°57' E 014°39'713.3
2017-Sep-17 20:00N 35°54' E 014°31'1 1.0
2017-Sep-17 19:30N 35°53' E 014°31'0 0.0
2017-Sep-17 18:57N 35°53' E 014°31'0 0.0
2017-Sep-17 18:30N 35°53' E 014°31'0 0.0
2017-Sep-17 18:00N 35°53' E 014°31'0 0.0
2017-Sep-17 13:03N 35°53' E 014°31'0 0.0
2017-Sep-17 12:57N 35°53' E 014°31'0 0.0
2017-Sep-17 12:30N 35°53' E 014°31'0 0.0
2017-Sep-17 02:17N 35°53' E 014°31'0 0.5
2017-Sep-17 02:00N 35°53' E 014°31'4 7.2
2017-Sep-17 01:30N 35°56' E 014°34'611.5
2017-Sep-17 01:00N 36°00' E 014°39'613.0
2017-Sep-17 00:30N 36°05' E 014°44'612.8
2017-Sep-17 00:00N 36°10' E 014°50'714.4
2017-Sep-16 23:30N 36°15' E 014°55'816.4
2017-Sep-16 23:00N 36°22' E 015°02'816.3
2017-Sep-16 22:30N 36°28' E 015°08'816.4
2017-Sep-16 22:00N 36°34' E 015°15'816.1
2017-Sep-16 21:30N 36°40' E 015°22'815.7
2017-Sep-16 21:00N 36°46' E 015°28'815.4
2017-Sep-16 20:30N 36°52' E 015°34'714.9
2017-Sep-16 20:00N 36°58' E 015°40'815.0
2017-Sep-16 19:30N 37°03' E 015°46'715.0
2017-Sep-16 19:00N 37°09' E 015°51'815.5
2017-Sep-16 18:30N 37°16' E 015°57'815.5
2017-Sep-16 18:00N 37°22' E 016°03'1415.5
2017-Sep-16 17:04N 37°33' E 016°14'715.4
2017-Sep-16 16:38N 37°38' E 016°20'415.4
2017-Sep-16 16:23N 37°41' E 016°23'615.4
2017-Sep-16 15:59N 37°46' E 016°27'715.3
2017-Sep-16 15:30N 37°53' E 016°32'815.6
2017-Sep-16 14:59N 37°59' E 016°39'915.9
2017-Sep-16 14:26N 38°06' E 016°46'715.9
2017-Sep-16 14:00N 38°11' E 016°51'815.9
2017-Sep-16 13:30N 38°17' E 016°58'815.9
2017-Sep-16 13:00N 38°23' E 017°05'815.8
2017-Sep-16 12:30N 38°29' E 017°11'815.7
2017-Sep-16 12:00N 38°35' E 017°17'815.7
2017-Sep-16 11:30N 38°41' E 017°25'815.6
2017-Sep-16 11:00N 38°47' E 017°30'816.1
2017-Sep-16 10:30N 38°54' E 017°34'815.8
2017-Sep-16 10:00N 39°00' E 017°41'815.7
2017-Sep-16 09:30N 39°07' E 017°47'815.8
2017-Sep-16 09:00N 39°13' E 017°53'815.9
2017-Sep-16 08:31N 39°19' E 017°59'815.9
2017-Sep-16 08:00N 39°25' E 018°06'816.0
2017-Sep-16 07:30N 39°32' E 018°12'816.7
2017-Sep-16 07:00N 39°38' E 018°19'917.2
2017-Sep-16 06:31N 39°45' E 018°25'816.7
2017-Sep-16 06:00N 39°53' E 018°30'1516.0
2017-Sep-16 05:04N 40°07' E 018°38'116.1
2017-Sep-16 05:01N 40°07' E 018°38'816.2
2017-Sep-16 04:30N 40°16' E 018°38'816.0
2017-Sep-16 04:00N 40°24' E 018°38'815.9
2017-Sep-16 03:30N 40°31' E 018°35'815.9
2017-Sep-16 03:00N 40°39' E 018°33'713.6
2017-Sep-16 02:29N 40°45' E 018°37'1016.0
2017-Sep-16 01:52N 40°55' E 018°33'515.0
2017-Sep-16 01:30N 40°59' E 018°29'815.0
2017-Sep-16 01:01N 41°06' E 018°25'32 0.7
2017-Sep-14 00:03N 41°33' E 018°49'117.2
2017-Sep-14 00:00N 41°32' E 018°49'916.8
2017-Sep-13 23:29N 41°24' E 018°51'816.6
2017-Sep-13 23:01N 41°16' E 018°54'816.3
2017-Sep-13 22:31N 41°08' E 018°57'3016.1
2017-Sep-13 20:38N 40°39' E 019°04'316.3
2017-Sep-13 20:25N 40°36' E 019°06'1316.5
2017-Sep-13 19:37N 40°23' E 019°11'716.3
2017-Sep-13 19:10N 40°16' E 019°16'915.5
2017-Sep-13 18:34N 40°10' E 019°24'118.5
2017-Sep-13 18:30N 40°09' E 019°25'918.6
2017-Sep-13 18:00N 40°03' E 019°35'918.3
2017-Sep-13 17:30N 39°57' E 019°44'  
2017-Sep-11 00:17N 36°09' E 015°26'311.7
2017-Sep-11 00:00N 36°09' E 015°21'611.6
2017-Sep-10 23:30N 36°08' E 015°14'611.1
2017-Sep-10 23:00N 36°08' E 015°07'510.9
2017-Sep-10 22:30N 36°07' E 015°01'611.1
2017-Sep-10 22:00N 36°05' E 014°54'611.3
2017-Sep-10 21:30N 36°02' E 014°48'611.5
2017-Sep-10 21:00N 35°59' E 014°43'611.7
2017-Sep-10 20:30N 35°56' E 014°37'5 9.2
2017-Sep-10 20:00N 35°54' E 014°31'1 1.3
2017-Sep-10 19:22N 35°53' E 014°31'0 0.0
2017-Sep-10 18:58N 35°53' E 014°31'0 0.0
2017-Sep-10 18:28N 35°53' E 014°31'0 0.0
2017-Sep-10 17:58N 35°53' E 014°31'0 0.0
2017-Sep-10 17:28N 35°53' E 014°31'0 0.0
2017-Sep-10 16:31N 35°53' E 014°31'0 0.0
2017-Sep-10 16:04N 35°53' E 014°31'0 0.0
2017-Sep-10 15:58N 35°53' E 014°31'0 0.0
2017-Sep-10 15:25N 35°53' E 014°31'0 0.0
2017-Sep-10 14:55N 35°53' E 014°31'0 0.0
2017-Sep-10 13:22N 35°53' E 014°31'0 0.0
2017-Sep-10 12:46N 35°53' E 014°31'0 0.0
2017-Sep-10 12:28N 35°53' E 014°31'0 0.0
2017-Sep-10 11:49N 35°53' E 014°31'0 0.0
2017-Sep-10 11:28N 35°53' E 014°31'0 0.0
2017-Sep-10 10:58N 35°53' E 014°31'0 0.0
2017-Sep-10 10:28N 35°53' E 014°31'0 0.0
2017-Sep-10 07:09N 35°53' E 014°31'0 0.0
2017-Sep-10 07:00N 35°53' E 014°31'0 0.0
2017-Sep-10 06:29N 35°53' E 014°31'0 0.0
2017-Sep-10 05:59N 35°53' E 014°31'0 0.0
2017-Sep-10 04:56N 35°53' E 014°31'0 0.0
2017-Sep-10 03:53N 35°53' E 014°31'0 0.0
2017-Sep-10 02:13N 35°53' E 014°31'1 2.0
2017-Sep-10 01:52N 35°54' E 014°31'3 7.7
2017-Sep-10 01:30N 35°55' E 014°34'510.7
2017-Sep-10 01:00N 35°59' E 014°39'612.1
2017-Sep-10 00:30N 36°03' E 014°45'  

Dump ship's entire track history